Catania — V2GH3 — position and weather

sailwx.info

Track history (hours):
 
Tides and Currents Weather Stations Pressure Air Temp Water Temp Dewpoint Dewpoint Depression Visibility Wind Speed Wind Dir Waves Ship Positions

Catania

Last reported at 2017-Oct-19 03:00 UTC. Time now 2017-Oct-19 11:14 UTC.
Position N 35°58' W 005°37'.

Length 87 m.

Type: Cargo ship. MMSI: 203888028.

Date/timePositionNaut miles runAvg speedWind from/ knotsBaromVisibWave heightAir tempDewpointWater temp
2017-Oct-19 03:00N 35°58' W 005°37'2 4.9
2017-Oct-19 02:30N 35°58' W 005°34'3 5.9
2017-Oct-19 01:58N 35°59' W 005°30'3 6.2
2017-Oct-19 01:29N 35°60' W 005°26'9 5.9
2017-Oct-19 00:02N 36°02' W 005°16'0 5.6
2017-Oct-19 00:00N 36°02' W 005°16'3 5.6
2017-Oct-18 23:30N 36°02' W 005°12'  
2017-Oct-14 16:43N 36°31' E 013°42'5 9.0
2017-Oct-14 16:10N 36°29' E 013°47'2 9.0
2017-Oct-14 15:56N 36°28' E 013°50'11 8.9
2017-Oct-14 14:39N 36°24' E 014°03'4 9.0
2017-Oct-14 14:11N 36°22' E 014°08'2 8.9
2017-Oct-14 13:58N 36°21' E 014°10'8 9.0
2017-Oct-14 13:08N 36°18' E 014°19'4 9.2
2017-Oct-14 12:45N 36°17' E 014°23'2 9.1
2017-Oct-14 12:29N 36°16' E 014°25'  
Track history (hours):
 
Tides and Currents Weather Stations Pressure Air Temp Water Temp Dewpoint Dewpoint Depression Visibility Wind Speed Wind Dir Waves Ship Positions

Catania

Last reported at 2017-Oct-19 03:00 UTC. Time now 2017-Oct-19 11:14 UTC.
Position N 35°58' W 005°37'.

Length 87 m.

Type: Cargo ship. MMSI: 203888028.

Date/timePositionNaut miles runAvg speedWind from/ knotsBaromVisibWave heightAir tempDewpointWater temp
2017-Oct-19 03:00N 35°58' W 005°37'2 4.9
2017-Oct-19 02:30N 35°58' W 005°34'3 5.9
2017-Oct-19 01:58N 35°59' W 005°30'3 6.2
2017-Oct-19 01:29N 35°60' W 005°26'9 5.9
2017-Oct-19 00:02N 36°02' W 005°16'0 5.6
2017-Oct-19 00:00N 36°02' W 005°16'3 5.6
2017-Oct-18 23:30N 36°02' W 005°12'  
2017-Oct-14 16:43N 36°31' E 013°42'5 9.0
2017-Oct-14 16:10N 36°29' E 013°47'2 9.0
2017-Oct-14 15:56N 36°28' E 013°50'11 8.9
2017-Oct-14 14:39N 36°24' E 014°03'4 9.0
2017-Oct-14 14:11N 36°22' E 014°08'2 8.9
2017-Oct-14 13:58N 36°21' E 014°10'8 9.0
2017-Oct-14 13:08N 36°18' E 014°19'4 9.2
2017-Oct-14 12:45N 36°17' E 014°23'2 9.1
2017-Oct-14 12:29N 36°16' E 014°25'  

Dump ship's entire track history